Arlington, NY

8:06 AM EDT on September 16, 2014 (GMT -0400)
Overlook Estates | Change Station
CLOSE
Current Station
Personal Weather Station
Location: Poughkeepsie, NY
Elevation: 280 ft
Nearby Weather Stations

Elev 280 ft 41.71 °N, 73.85 °W | Updated 18 seconds ago

Rain
Rain
55.0 °F
Feels Like 55.0 °F
N
1.1
Wind Variable Wind from NW
Gusts 1.3 mph

Today
High -- | Low -- °F
--% Chance of Precip.
Yesterday
High -- | Low -- °F
Precip. -- in
6:36 AM 7:03 PM
Last Quarter, 46% visible
Pressure 30.02 in
Visibility 2.5 miles
Clouds Scattered Clouds 2000 ft
Mostly Cloudy 3300 ft
Overcast 7500 ft
Dew Point 52 °F
Humidity 91%
Rainfall 0.00 in
Snow Depth Not available.
UV 0 out of 12
Pollen 1.60 out of 12
PM2.5 Good
Flu Activity Not available.
SPECI KPOU 161201Z 08003KT 2 1/2SM -RA BR SCT020 BKN033 OVC075 13/12 A3002 RMK AO2 P0002 T01330117

More Conditions Fewer Conditions

Pressure 30.02 in
Visibility 2.5 miles
Clouds Scattered Clouds 2000 ft
Mostly Cloudy 3300 ft
Overcast 7500 ft
Dew Point 52 °F
Humidity 91%
Rainfall 0.00 in
Snow Depth Not available.
UV 0 out of 12
Pollen 1.60 out of 12
PM2.5 Good
Flu Activity Not available.
SPECI KPOU 161201Z 08003KT 2 1/2SM -RA BR SCT020 BKN033 OVC075 13/12 A3002 RMK AO2 P0002 T01330117

More Conditions Fewer Conditions

10-Day Weather Forecast

Almanac

Astronomy

Sep. 16, 2014 Rise Set
Actual Time 6:36 AM EDT 7:03 PM EDT
Civil Twilight 6:08 AM EDT 7:30 PM EDT
Nautical Twilight 5:35 AM EDT 8:03 PM EDT
Astronomical Twilight 5:02 AM EDT 8:37 PM EDT
Moon No Moon Rise 2:28 PM EDT
Length of Visible Light 13h 22m
Length of Day
12h 26m
Tomorrow will be 2m 46s shorter.
Last Quarter, 46% of the Moon is Illuminated
Today
Last Quarter
Sep 24
New
Oct 1
First Quarter
Oct 8
Full
Oct 15
Last Quarter

Today's Extremes

State Highs State Lows

Community

WunderPhotos

Upload Photos

1,753,725 photos uploaded!

Nearby

Air Quality

  Air Quality AQ Index Pollutant
Yesterday Good
OZONE
Yesterday Good
PM2.5
Current Good
PM2.5
Tuesday Good
OZONE
Tuesday Good
PM2.5

Snow Depth

Station Depth Elevation
No new snow has been reported.

Earthquake Activity

City Distance Mag. Time & Date
No recent earthquake activity has been reported nearby.
Minimum magnitude displayed is 2.5.

Coastal Water Temperatures

Place Temperature
No Stations Reporting

Nearby Weather Stations